Sunday, November 23, 2014
02:05 UTC
  |  Log In   |  Register Free
Airport Search:

Dawson Municipal Airport
(16J)

Dawson Municipal Airport Diagram
No Airport Diagram Available

FAA data valid effective November 13, 2014 - January 08, 2015 (unless otherwise noted).

 
 
 
 
 
 
 
 
 
 
 
 
 
 

Current Aviation Weather for Dawson Municipal Airport (16J)

METAR data is unavailable for 16J. The nearest METAR location is at KABY (17 nm SE from 16J).

The most recent METAR observation for KABY was updated at: 0117
METAR Summary (Translated METAR)
KABY
230053Z 08008KT 10SM BKN026 BKN030 OVC070 16/13 A3021 RMK AO2 SLP231 T01610133 $
(17 nm SE from 16J)
KACJ
230055Z AUTO 07006KT 7SM DZ BKN027 BKN047 OVC085 12/12 A3023 RMK AO2
(25 nm NE from 16J)
TAF Summary (Translated TAF)
KABY
221720Z 2218/2318 08010KT P6SM BKN040 OVC050 FM230000 10010KT P6SM -RA OVC025 FM230300 10010KT 3SM RA BR OVC007 FM230700 10012KT 2SM TSRA BR OVC006CB
  Airport Weather Conditions for 16J

Current weather conditions are
not available for 16J


The nearest NOAA weather station
is at ABY, (17 nm SE from 16J)
  
 Current Weather at ABY
61° F
Overcast
East winds at 9.2 mph
ABY NOAA Radar

Pressure: 30.21 in
Humidity: 84%
Wind: East at 9.2 MPH (8 KT)
Dew Point: 55.9°F
Visibility: 10.00 mi


Airport Weather Forecast for 16J

Translated METAR and TAF for KABY
Translated METAR for KABY (0200 UTC 23 November 2014)
found at http://aviationweather.gov/adds/metars/
 
METAR text: KABY 230153Z 08010KT 5SM FEW020 BKN065 OVC080 15/13 A3020 RMK AO2 SLP226 P0001 T01500133 $
Conditions at: KABY (ALBANY , GA, US) observed 0153 UTC 23 November 2014
Temperature: 15.0°C (59°F)
Dewpoint: 13.3°C (56°F) [RH = 90%]
Pressure (altimeter): 30.20 inches Hg (1022.8 mb)
[Sea-level pressure: 1022.6 mb]
Winds: from the E (80 degrees) at 12 MPH (10 knots; 5.2 m/s)
Visibility: 5 miles (8 km)
Ceiling: 6500 feet AGL
Clouds: few clouds at 2000 feet AGL
broken clouds at 6500 feet AGL
overcast cloud deck at 8000 feet AGL
Weather:
SOME DATA ABOVE MAY BE INACCURATE!!!
"$" is an indication the sensor requires maintenance
Translated TAF for KABY
Forecast for: KABY (ALBANY , GA, US)
TAF Text: KABY 222347Z 2300/2324 09009KT 4SM RA BR OVC025
Forecast period: 0000 to 1600 UTC 23 November 2014
Forecast type: FROM: standard forecast or significant change
Winds: from the E (90 degrees) at 10 MPH (9 knots; 4.7 m/s)
Visibility: 4 miles (6 km)
Ceiling: 2500 feet AGL
Clouds: overcast cloud deck at 2500 feet AGL
Weather: RA BR  (rain, mist)
TAF Text: FM231600 20015G25KT P6SM SCT015 BKN030
Forecast period: 1600 to 2100 UTC 23 November 2014
Forecast type: FROM: standard forecast or significant change
Winds: from the SSW (200 degrees) at 17 MPH (15 knots; 7.8 m/s)
gusting to 29 MPH (25 knots; 13.0 m/s)
Visibility: 6 or more miles (10+ km)
Ceiling: 3000 feet AGL
Clouds: scattered clouds at 1500 feet AGL
broken clouds at 3000 feet AGL
Weather: no significant weather forecast for this period
TAF Text: FM232100 21012G20KT P6SM VCTS BKN015CB BKN030
Forecast period: 2100 UTC 23 November 2014 to 0000 UTC 24 November 2014
Forecast type: FROM: standard forecast or significant change
Winds: from the SSW (210 degrees) at 14 MPH (12 knots; 6.2 m/s)
gusting to 23 MPH (20 knots; 10.4 m/s)
Visibility: 6 or more miles (10+ km)
Ceiling: 1500 feet AGL
Clouds: broken clouds at 1500 feet AGL
broken clouds at 3000 feet AGL
Weather: VCTS  (thunderstorm in vicinity)

Find All Airport Services Find A Hotel Find A Rental Car Find A Golf Course Find A Restaurant $100 Hamburger



FBO's on the Field
FBO Company Facility Photos Services Transportation Aviation Fuel Prices: Prices include tax
Catering Weather Repair Courtesy Rental Type 100LL JetA JetA+ MOGAS 8087
 
Dawson/Terrell Co. Airport

This FBO has not yet been rated
FS:Independent
Last Updated: Nov-19
Login to update fuel prices
SS:
Contact Dawson/Terrell Co. AirportMore FBO Information
 
Add another FBO Facility Photos Catering Weather Repair Courtesy Rental Type 100LL JetA JetA+ MOGAS 8087
Services Transportation Aviation Fuel Prices: Prices include tax


model-print
model-print
model-print
model-print